TimeMST,TemperatureF,Dew PointF,Humidity,Sea Level PressureIn,VisibilityMPH,Wind Direction,Wind SpeedMPH,Gust SpeedMPH,PrecipitationIn,Events,Conditions,WindDirDegrees,DateUTC
12:52 AM,24.1,12.0,60,30.17,10.0,North,5.8,-,N/A,,Clear,350,2014-01-28 07:52:00
1:52 AM,23.0,12.9,65,30.18,10.0,NNE,8.1,-,N/A,,Clear,20,2014-01-28 08:52:00
2:52 AM,30.9,17.1,57,30.16,10.0,North,10.4,-,N/A,,Clear,350,2014-01-28 09:52:00
3:52 AM,34.0,19.0,54,30.15,10.0,North,13.8,-,N/A,,Clear,350,2014-01-28 10:52:00
4:52 AM,33.1,18.0,54,30.17,10.0,North,13.8,-,N/A,,Clear,350,2014-01-28 11:52:00
5:52 AM,28.9,19.0,67,30.24,10.0,North,10.4,-,N/A,,Clear,350,2014-01-28 12:52:00
6:52 AM,27.0,18.0,69,30.29,10.0,Variable,3.5,-,N/A,,Clear,0,2014-01-28 13:52:00
7:52 AM,26.1,19.0,75,30.32,10.0,NNE,4.6,-,N/A,,Clear,20,2014-01-28 14:52:00
8:52 AM,32.0,21.0,64,30.31,10.0,North,8.1,-,N/A,,Clear,350,2014-01-28 15:52:00
9:52 AM,37.0,21.0,52,30.30,10.0,North,12.7,-,N/A,,Clear,10,2014-01-28 16:52:00
10:52 AM,39.0,21.0,49,30.31,10.0,North,11.5,-,N/A,,Clear,360,2014-01-28 17:52:00
11:52 AM,39.9,21.0,47,30.31,10.0,NE,9.2,-,N/A,,Clear,40,2014-01-28 18:52:00
12:52 PM,43.0,19.9,40,30.28,10.0,NNE,9.2,-,N/A,,Clear,20,2014-01-28 19:52:00
1:52 PM,46.0,19.9,35,30.25,10.0,North,11.5,-,N/A,,Clear,10,2014-01-28 20:52:00
2:52 PM,46.9,18.0,32,30.19,10.0,North,11.5,-,N/A,,Clear,10,2014-01-28 21:52:00
3:52 PM,46.9,16.0,29,30.19,10.0,North,11.5,-,N/A,,Clear,10,2014-01-28 22:52:00
4:52 PM,46.0,14.0,28,30.19,10.0,North,13.8,-,N/A,,Clear,360,2014-01-28 23:52:00
5:52 PM,36.0,14.0,41,30.26,10.0,NNW,6.9,-,N/A,,Clear,340,2014-01-29 00:52:00
6:52 PM,28.0,12.9,53,30.30,10.0,North,8.1,-,N/A,,Clear,360,2014-01-29 01:52:00
7:52 PM,27.0,14.0,58,30.30,10.0,WNW,3.5,-,N/A,,Clear,290,2014-01-29 02:52:00
8:52 PM,26.1,12.9,58,30.29,10.0,South,3.5,-,N/A,,Clear,170,2014-01-29 03:52:00
9:52 PM,26.1,14.0,60,30.28,10.0,WSW,3.5,-,N/A,,Clear,240,2014-01-29 04:52:00
10:52 PM,26.1,14.0,60,30.27,10.0,West,5.8,-,N/A,,Clear,280,2014-01-29 05:52:00
11:52 PM,23.0,12.0,63,30.29,10.0,South,3.5,-,N/A,,Clear,180,2014-01-29 06:52:00